createdAt,value
2019-05-09T00:02:16.628Z,5.60
2019-05-09T00:07:23.179Z,6.00
2019-05-09T00:12:30.688Z,6.20
2019-05-09T00:17:39.864Z,5.75
2019-05-09T00:22:47.415Z,6.20
2019-05-09T00:27:53.654Z,6.35
2019-05-09T00:33:03.797Z,6.47
2019-05-09T00:38:13.225Z,5.78
2019-05-09T00:43:23.749Z,6.33
2019-05-09T00:48:33.777Z,5.87
2019-05-09T00:53:44.422Z,5.20
2019-05-09T00:58:50.278Z,5.00
2019-05-09T01:03:54.889Z,4.97
2019-05-09T01:09:07.410Z,4.92
2019-05-09T01:14:14.044Z,3.27
2019-05-09T01:19:23.282Z,4.92
2019-05-09T01:24:35.487Z,4.37
2019-05-09T01:29:43.899Z,4.90
2019-05-09T01:34:50.242Z,4.70
2019-05-09T01:39:55.213Z,4.17
2019-05-09T01:45:03.587Z,4.35
2019-05-09T01:50:08.040Z,4.10
2019-05-09T01:55:16.145Z,4.40
2019-05-09T02:00:23.914Z,3.90
2019-05-09T02:05:35.143Z,4.72
2019-05-09T02:10:44.868Z,4.30
2019-05-09T02:16:06.648Z,3.92
2019-05-09T02:21:14.563Z,3.75
2019-05-09T02:26:25.461Z,3.67
2019-05-09T02:31:35.075Z,3.62
2019-05-09T02:36:38.469Z,3.72
2019-05-09T02:42:00.951Z,3.22
2019-05-09T02:46:59.708Z,3.83
2019-05-09T02:52:11.283Z,3.75
2019-05-09T02:57:18.517Z,3.30
2019-05-09T03:02:28.834Z,3.40
2019-05-09T03:07:58.403Z,3.12
2019-05-09T03:12:59.374Z,2.95
2019-05-09T03:18:08.584Z,3.42
2019-05-09T03:23:13.006Z,3.10
2019-05-09T03:28:33.942Z,3.05
2019-05-09T03:33:40.579Z,3.40
2019-05-09T03:38:44.399Z,2.80
2019-05-09T03:43:58.545Z,3.10
2019-05-09T03:49:09.802Z,3.08
2019-05-09T03:54:18.484Z,3.60
2019-05-09T03:59:27.894Z,3.77
2019-05-09T04:04:40.460Z,3.60
2019-05-09T04:09:58.449Z,3.80
2019-05-09T04:15:08.329Z,3.50
2019-05-09T04:20:17.339Z,3.80
2019-05-09T04:25:23.087Z,3.60
2019-05-09T04:30:28.995Z,3.62
2019-05-09T04:35:38.217Z,3.98
2019-05-09T04:40:48.145Z,3.80
2019-05-09T04:45:58.692Z,5.03
2019-05-09T04:51:07.809Z,4.50
2019-05-09T04:56:24.253Z,4.00
2019-05-09T05:01:30.398Z,4.22
2019-05-09T05:06:34.562Z,3.98
2019-05-09T05:11:38.780Z,4.30
2019-05-09T05:16:43.002Z,4.15
2019-05-09T05:21:48.070Z,4.50
2019-05-09T05:26:52.449Z,4.40
2019-05-09T05:31:58.562Z,4.65
2019-05-09T05:37:02.801Z,4.60
2019-05-09T05:42:08.335Z,4.70
2019-05-09T05:47:29.875Z,4.65
2019-05-09T05:52:34.050Z,5.33
2019-05-09T05:57:38.701Z,5.17
2019-05-09T06:02:42.971Z,5.08
2019-05-09T06:07:48.352Z,4.75
2019-05-09T06:12:52.739Z,4.35
2019-05-09T06:17:57.863Z,8.78
2019-05-09T06:23:02.378Z,5.83
2019-05-09T06:28:27.458Z,5.58
2019-05-09T06:33:31.776Z,8.85
2019-05-09T06:38:37.705Z,11.78
2019-05-09T06:44:14.157Z,14.35
2019-05-09T06:49:26.773Z,13.45
2019-05-09T06:54:17.757Z,13.50
2019-05-09T06:59:22.002Z,13.60
2019-05-09T07:04:27.908Z,13.10
2019-05-09T07:09:33.768Z,12.35
2019-05-09T07:14:41.424Z,10.68
2019-05-09T07:19:44.301Z,10.43
2019-05-09T07:25:10.994Z,10.88
2019-05-09T07:30:29.281Z,11.05
2019-05-09T07:35:33.560Z,10.65
2019-05-09T07:40:38.595Z,11.15
2019-05-09T07:45:48.143Z,13.20
2019-05-09T07:50:52.390Z,13.03
2019-05-09T07:55:58.191Z,12.90
2019-05-09T08:01:02.505Z,16.70
2019-05-09T08:06:08.720Z,15.40
2019-05-09T08:11:18.024Z,13.13
2019-05-09T08:16:21.822Z,13.20
2019-05-09T08:21:27.662Z,11.33
2019-05-09T08:26:32.139Z,10.35
2019-05-09T08:31:40.021Z,9.08
2019-05-09T08:36:42.396Z,10.10
2019-05-09T08:41:48.510Z,9.28
2019-05-09T08:46:52.576Z,9.05
2019-05-09T08:52:14.997Z,5.97
2019-05-09T08:57:10.961Z,5.75
2019-05-09T09:02:18.819Z,5.72
2019-05-09T09:07:21.259Z,5.00
2019-05-09T09:12:31.281Z,4.50
2019-05-09T09:17:31.575Z,4.78
2019-05-09T09:22:37.553Z,3.70
2019-05-09T09:27:41.721Z,2.75
2019-05-09T09:32:47.856Z,2.60
2019-05-09T09:37:53.418Z,3.95
2019-05-09T09:42:58.349Z,2.95
2019-05-09T09:48:08.629Z,2.67
2019-05-09T09:53:11.848Z,2.77
2019-05-09T09:58:18.928Z,3.20
2019-05-09T10:03:24.027Z,2.67
2019-05-09T10:08:28.232Z,3.25
2019-05-09T10:13:32.770Z,3.00
2019-05-09T10:18:47.404Z,3.15
2019-05-09T10:23:51.735Z,3.45
2019-05-09T10:28:56.013Z,3.90
2019-05-09T10:34:00.259Z,3.00
2019-05-09T10:39:08.141Z,3.25
2019-05-09T10:44:19.217Z,2.70
2019-05-09T10:49:23.457Z,2.45
2019-05-09T10:54:27.916Z,2.62
2019-05-09T10:59:32.219Z,3.00
2019-05-09T11:04:37.951Z,3.75
2019-05-09T11:09:43.652Z,3.87
2019-05-09T11:14:48.412Z,3.52
2019-05-09T11:19:52.732Z,3.17
2019-05-09T11:24:57.958Z,3.60
2019-05-09T11:30:02.386Z,3.67
2019-05-09T11:35:09.050Z,3.05
2019-05-09T11:40:13.540Z,3.77
2019-05-09T11:45:18.142Z,3.17
2019-05-09T11:50:23.348Z,3.75
2019-05-09T11:55:35.422Z,3.52
2019-05-09T12:00:33.833Z,3.00
2019-05-09T12:05:38.040Z,3.40
2019-05-09T12:10:42.237Z,3.00
2019-05-09T12:15:48.830Z,3.20
2019-05-09T12:20:53.327Z,3.98
2019-05-09T12:25:58.220Z,4.50
2019-05-09T12:31:02.642Z,5.37
2019-05-09T12:36:09.195Z,4.15
2019-05-09T12:41:12.778Z,2.95
2019-05-09T12:46:17.610Z,3.10
2019-05-09T12:51:21.819Z,3.02
2019-05-09T12:56:28.214Z,3.33
2019-05-09T13:01:32.070Z,5.05
2019-05-09T13:06:38.038Z,5.30
2019-05-09T13:11:42.400Z,6.08
2019-05-09T13:16:50.534Z,6.33
2019-05-09T13:21:54.363Z,5.97
2019-05-09T13:27:01.468Z,6.00
2019-05-09T13:32:05.675Z,5.65
2019-05-09T13:37:10.037Z,6.25
2019-05-09T13:42:14.255Z,6.70
2019-05-09T13:47:18.454Z,7.15
2019-05-09T13:52:22.691Z,9.63
2019-05-09T13:57:27.696Z,8.63
2019-05-09T14:02:32.074Z,9.98
2019-05-09T14:07:37.700Z,7.58
2019-05-09T14:12:42.151Z,6.80
2019-05-09T14:17:53.004Z,6.40
2019-05-09T14:22:52.376Z,7.87
2019-05-09T14:27:56.573Z,8.23
2019-05-09T14:33:00.817Z,7.65
2019-05-09T14:38:05.003Z,9.20
2019-05-09T14:43:09.857Z,7.03
2019-05-09T14:48:14.206Z,6.85
2019-05-09T14:53:18.472Z,6.90
2019-05-09T14:58:22.757Z,7.65
2019-05-09T15:03:27.775Z,8.55
2019-05-09T15:08:32.165Z,7.87
2019-05-09T15:13:36.388Z,8.33
2019-05-09T15:18:40.577Z,7.60
2019-05-09T15:23:44.802Z,7.70
2019-05-09T15:28:49.019Z,7.83
2019-05-09T15:33:53.268Z,8.65
2019-05-09T15:38:59.153Z,8.50
2019-05-09T15:44:03.553Z,8.78
2019-05-09T15:49:07.891Z,8.15
2019-05-09T15:54:12.092Z,7.55
2019-05-09T15:59:18.312Z,7.47
2019-05-09T16:04:22.517Z,7.92
2019-05-09T16:09:28.556Z,10.05
2019-05-09T16:14:32.820Z,12.73
2019-05-09T16:19:37.781Z,14.63
2019-05-09T16:24:42.168Z,15.45
2019-05-09T16:29:48.552Z,15.35
2019-05-09T16:34:52.343Z,17.12
2019-05-09T16:39:57.739Z,24.55
2019-05-09T16:45:02.019Z,26.27
2019-05-09T16:50:11.930Z,24.60
2019-05-09T16:55:18.671Z,28.42
2019-05-09T17:00:32.768Z,18.30
2019-05-09T17:05:37.483Z,12.58
2019-05-09T17:10:41.873Z,11.65
2019-05-09T17:15:46.092Z,9.20
2019-05-09T17:20:52.011Z,8.80
2019-05-09T17:25:57.864Z,10.05
2019-05-09T17:31:02.232Z,10.93
2019-05-09T17:36:06.559Z,10.88
2019-05-09T17:41:10.789Z,13.22
2019-05-09T17:46:15.030Z,14.15
2019-05-09T17:51:32.666Z,14.58
2019-05-09T17:56:25.301Z,12.53
2019-05-09T18:01:29.605Z,9.58
2019-05-09T18:06:33.804Z,7.67
2019-05-09T18:11:38.093Z,8.08
2019-05-09T18:16:42.323Z,8.75
2019-05-09T18:21:51.009Z,6.55
2019-05-09T18:26:52.562Z,4.42
2019-05-09T18:32:01.390Z,8.85
2019-05-09T18:37:08.006Z,7.90
2019-05-09T18:42:11.814Z,6.37
2019-05-09T18:47:18.380Z,7.45
2019-05-09T18:52:22.283Z,8.10
2019-05-09T18:57:26.584Z,7.15
2019-05-09T19:02:30.886Z,8.00
2019-05-09T19:07:35.115Z,7.08
2019-05-09T19:12:39.391Z,8.45
2019-05-09T19:18:33.653Z,6.65
2019-05-09T19:53:19.896Z,11.25
2019-05-09T19:57:13.159Z,14.30
2019-05-09T20:02:28.973Z,14.73
2019-05-09T20:08:49.743Z,16.97
2019-05-09T20:24:17.891Z,22.10
2019-05-09T20:29:39.587Z,20.17
2019-05-09T20:35:13.247Z,19.48
2019-05-09T20:41:30.110Z,20.72
2019-05-09T20:45:42.543Z,19.50
2019-05-09T20:51:05.224Z,15.93
2019-05-09T20:56:09.627Z,16.30
2019-05-09T21:01:18.549Z,15.25
2019-05-09T21:06:26.481Z,13.78
2019-05-09T21:11:35.558Z,12.00
2019-05-09T21:16:46.088Z,11.40
2019-05-09T21:21:59.444Z,11.97
2019-05-09T21:27:13.860Z,10.98
2019-05-09T21:32:26.546Z,9.30
2019-05-09T21:37:34.231Z,10.00
2019-05-09T21:42:40.340Z,10.32
2019-05-09T21:47:58.654Z,10.82
2019-05-09T21:52:56.438Z,11.45
2019-05-09T21:58:03.771Z,10.78
2019-05-09T22:03:13.076Z,11.25
2019-05-09T22:08:23.743Z,10.08
2019-05-09T22:13:30.271Z,10.10
2019-05-09T22:18:47.148Z,10.08
2019-05-09T22:24:08.358Z,10.50
2019-05-09T22:29:00.398Z,10.63
2019-05-09T22:34:13.081Z,10.58
2019-05-09T22:39:17.923Z,11.10
2019-05-09T22:44:30.779Z,11.48
2019-05-09T22:49:38.544Z,11.78
2019-05-09T22:54:47.328Z,10.93
2019-05-09T23:00:03.665Z,11.83
2019-05-09T23:05:12.659Z,11.48
2019-05-09T23:10:20.406Z,11.68
2019-05-09T23:20:44.899Z,11.90
2019-05-09T23:25:50.974Z,12.70
2019-05-09T23:30:58.656Z,12.98
2019-05-09T23:36:04.950Z,14.47
2019-05-09T23:41:09.380Z,14.73
2019-05-09T23:46:17.848Z,15.70
2019-05-09T23:51:25.971Z,16.42
2019-05-09T23:57:01.915Z,15.30
